aviador You're here:

EINN Decoded Metar

SHANNON in IRELAND
Report Time2017-08-21 23:30:00
UTC Time2017-08-21 23:54:21
Flight Rules vfr VFR
Wind140° at 12 kt
W.Decomp.*RWY 06: 1.0 kt HW 12.0 kt RCW
W.Rank140° ranks 11
Current wind is above 140° avg. (9.7)
Visibility9999 m
Phenomena:N/A
Clouds:Few 011 Hf
Expected CloudBase > 800 ft AGL from Temp-Dew spread
CeilingNone
Temp17°C (ISA +2)
Dew Point15°C (88% RH)
AAT14.3°C
QNH1016 hPa
Density Alt443 ft
Elevation66 ft
Report Wrong Elevation
Raw Report
EINN 212330Z 14012KT 9999 FEW011 17/15 Q1016 NOSIG=

Extra information for EINN:More info

Metar Taf Metar & Taf Last 4 Metars F.Rules Stats Wind Profile Meteogram Temp Stats Airport Information Weather charts Add Link Nearby VenuesMetar ALERT Operation Metar Decoded Social comments